createdAt,value
2022-08-30T00:01:22.638Z,3.90
2022-08-30T00:03:49.729Z,5.22
2022-08-30T00:06:18.899Z,5.95
2022-08-30T00:08:46.187Z,6.80
2022-08-30T00:11:16.845Z,7.68
2022-08-30T00:13:45.733Z,6.75
2022-08-30T00:16:13.820Z,5.65
2022-08-30T00:18:40.873Z,6.97
2022-08-30T00:21:09.188Z,6.22
2022-08-30T00:23:36.486Z,6.97
2022-08-30T00:26:04.465Z,6.80
2022-08-30T00:28:32.392Z,7.32
2022-08-30T00:30:59.362Z,6.00
2022-08-30T00:33:26.275Z,6.30
2022-08-30T00:35:53.169Z,6.37
2022-08-30T00:38:20.229Z,6.35
2022-08-30T00:40:47.332Z,6.57
2022-08-30T00:43:19.333Z,6.45
2022-08-30T00:45:46.981Z,6.20
2022-08-30T00:48:14.109Z,6.10
2022-08-30T00:50:45.437Z,5.75
2022-08-30T00:53:21.047Z,6.53
2022-08-30T00:55:49.208Z,6.60
2022-08-30T00:58:21.585Z,6.82
2022-08-30T01:00:54.609Z,6.95
2022-08-30T01:03:21.806Z,6.30
2022-08-30T01:05:50.694Z,6.37
2022-08-30T01:08:19.601Z,6.60
2022-08-30T01:10:46.594Z,6.60
2022-08-30T01:13:14.551Z,6.65
2022-08-30T01:15:43.371Z,6.80
2022-08-30T01:18:13.267Z,5.95
2022-08-30T01:21:16.277Z,6.43
2022-08-30T01:23:45.485Z,6.30
2022-08-30T01:26:13.542Z,6.18
2022-08-30T01:28:47.630Z,6.15
2022-08-30T01:31:15.878Z,6.70
2022-08-30T01:33:43.494Z,5.82
2022-08-30T01:36:13.303Z,6.50
2022-08-30T01:38:44.018Z,6.57
2022-08-30T01:41:14.992Z,5.30
2022-08-30T01:43:42.793Z,5.80
2022-08-30T01:46:12.097Z,5.68
2022-08-30T01:48:40.642Z,5.45
2022-08-30T01:51:11.933Z,5.85
2022-08-30T01:53:40.409Z,6.37
2022-08-30T01:56:08.543Z,6.20
2022-08-30T01:58:36.493Z,5.82
2022-08-30T02:01:05.716Z,5.03
2022-08-30T02:03:35.468Z,5.70
2022-08-30T02:06:07.536Z,5.93
2022-08-30T02:08:34.956Z,5.68
2022-08-30T02:11:01.990Z,5.65
2022-08-30T02:13:29.082Z,6.50
2022-08-30T02:15:56.010Z,5.65
2022-08-30T02:18:25.480Z,5.70
2022-08-30T02:20:52.755Z,5.55
2022-08-30T02:23:19.784Z,6.00
2022-08-30T02:25:47.166Z,5.70
2022-08-30T02:28:15.870Z,5.35
2022-08-30T02:30:46.728Z,5.93
2022-08-30T02:33:14.479Z,6.20
2022-08-30T02:35:41.491Z,5.85
2022-08-30T02:38:08.543Z,6.15
2022-08-30T02:40:35.727Z,5.35
2022-08-30T02:43:06.248Z,5.37
2022-08-30T02:45:33.353Z,5.90
2022-08-30T02:48:00.557Z,5.25
2022-08-30T02:50:27.508Z,4.93
2022-08-30T02:52:55.386Z,5.72
2022-08-30T02:55:23.454Z,6.18
2022-08-30T02:57:50.641Z,6.07
2022-08-30T03:00:20.340Z,6.53
2022-08-30T03:02:47.474Z,5.60
2022-08-30T03:05:15.975Z,6.43
2022-08-30T03:07:43.454Z,6.28
2022-08-30T03:10:11.141Z,6.22
2022-08-30T03:12:41.698Z,6.43
2022-08-30T03:15:11.084Z,5.37
2022-08-30T03:17:38.023Z,6.07
2022-08-30T03:20:06.134Z,5.70
2022-08-30T03:22:33.168Z,5.87
2022-08-30T03:25:01.578Z,6.10
2022-08-30T03:27:29.564Z,5.62
2022-08-30T03:29:56.817Z,5.62
2022-08-30T03:32:24.257Z,6.00
2022-08-30T03:34:51.355Z,5.85
2022-08-30T03:37:18.500Z,6.53
2022-08-30T03:39:45.762Z,6.47
2022-08-30T03:42:13.441Z,6.20
2022-08-30T03:44:40.375Z,6.18
2022-08-30T03:47:08.717Z,6.00
2022-08-30T03:49:35.889Z,5.95
2022-08-30T03:52:03.135Z,6.03
2022-08-30T03:54:30.191Z,6.78
2022-08-30T03:56:57.230Z,5.95
2022-08-30T03:59:24.405Z,5.62
2022-08-30T04:01:51.563Z,6.32
2022-08-30T04:04:21.145Z,5.95
2022-08-30T04:06:48.728Z,6.10
2022-08-30T04:09:15.706Z,5.95
2022-08-30T04:11:42.736Z,5.90
2022-08-30T04:14:09.724Z,5.87
2022-08-30T04:16:36.793Z,5.62
2022-08-30T04:19:04.213Z,5.75
2022-08-30T04:21:31.328Z,5.90
2022-08-30T04:23:58.563Z,6.28
2022-08-30T04:26:29.169Z,6.47
2022-08-30T04:28:56.960Z,5.82
2022-08-30T04:31:24.276Z,6.10
2022-08-30T04:33:51.214Z,5.80
2022-08-30T04:36:18.201Z,5.87
2022-08-30T04:38:45.083Z,6.35
2022-08-30T04:41:15.703Z,6.30
2022-08-30T04:43:43.800Z,6.18
2022-08-30T04:46:11.205Z,6.18
2022-08-30T04:48:38.549Z,5.93
2022-08-30T04:51:11.539Z,6.32
2022-08-30T04:53:38.476Z,6.45
2022-08-30T04:56:19.828Z,6.57
2022-08-30T04:58:48.271Z,7.28
2022-08-30T05:01:23.741Z,6.60
2022-08-30T05:03:52.359Z,5.87
2022-08-30T05:06:19.856Z,6.70
2022-08-30T05:08:47.296Z,6.93
2022-08-30T05:11:16.054Z,6.00
2022-08-30T05:13:43.987Z,6.07
2022-08-30T05:16:11.202Z,5.82
2022-08-30T05:18:38.156Z,6.62
2022-08-30T05:21:11.767Z,6.75
2022-08-30T05:23:39.218Z,6.40
2022-08-30T05:26:12.467Z,7.50
2022-08-30T05:28:39.898Z,7.78
2022-08-30T05:31:28.432Z,7.20
2022-08-30T05:33:55.899Z,6.50
2022-08-30T05:36:25.189Z,6.87
2022-08-30T05:38:53.380Z,5.85
2022-08-30T05:41:21.781Z,7.03
2022-08-30T05:43:48.846Z,7.10
2022-08-30T05:46:20.072Z,6.78
2022-08-30T05:48:47.446Z,6.22
2022-08-30T05:51:20.974Z,6.05
2022-08-30T05:53:48.815Z,5.80
2022-08-30T05:56:21.141Z,5.97
2022-08-30T05:58:52.085Z,5.95
2022-08-30T06:01:26.661Z,5.60
2022-08-30T06:03:57.595Z,5.85
2022-08-30T06:06:26.987Z,5.60
2022-08-30T06:08:54.055Z,5.70
2022-08-30T06:11:22.551Z,5.28
2022-08-30T06:13:50.578Z,5.65
2022-08-30T06:16:19.565Z,5.65
2022-08-30T06:18:47.202Z,5.97
2022-08-30T06:21:20.305Z,6.53
2022-08-30T06:23:47.442Z,6.85
2022-08-30T06:26:14.844Z,7.18
2022-08-30T06:28:42.078Z,6.50
2022-08-30T06:31:11.147Z,7.18
2022-08-30T06:33:38.761Z,6.60
2022-08-30T06:36:16.060Z,7.32
2022-08-30T06:38:43.016Z,7.30
2022-08-30T06:41:14.967Z,7.00
2022-08-30T06:43:46.723Z,7.32
2022-08-30T06:46:22.833Z,7.00
2022-08-30T06:48:49.832Z,7.45
2022-08-30T06:51:21.888Z,7.10
2022-08-30T06:53:50.187Z,7.03
2022-08-30T06:56:17.492Z,6.93
2022-08-30T06:58:44.862Z,7.45
2022-08-30T07:01:13.881Z,7.03
2022-08-30T07:03:41.058Z,7.03
2022-08-30T07:06:08.813Z,7.55
2022-08-30T07:08:35.887Z,7.12
2022-08-30T07:11:03.876Z,7.43
2022-08-30T07:13:31.422Z,7.37
2022-08-30T07:15:58.534Z,7.03
2022-08-30T07:18:44.062Z,6.93
2022-08-30T07:21:16.427Z,7.00
2022-08-30T07:23:44.317Z,7.07
2022-08-30T07:26:14.215Z,7.20
2022-08-30T07:28:43.193Z,6.37
2022-08-30T07:31:11.175Z,6.12
2022-08-30T07:33:38.457Z,6.72
2022-08-30T07:36:05.651Z,6.00
2022-08-30T07:38:32.571Z,6.62
2022-08-30T07:41:01.432Z,6.40
2022-08-30T07:43:29.311Z,6.45
2022-08-30T07:45:58.313Z,7.12
2022-08-30T07:48:25.281Z,7.50
2022-08-30T07:50:56.702Z,7.43
2022-08-30T07:53:25.418Z,6.87
2022-08-30T07:55:52.500Z,6.62
2022-08-30T07:58:19.670Z,6.55
2022-08-30T08:00:46.636Z,6.50
2022-08-30T08:03:13.737Z,6.28
2022-08-30T08:05:43.186Z,6.37
2022-08-30T08:08:10.747Z,6.35
2022-08-30T08:10:39.395Z,5.72
2022-08-30T08:13:06.414Z,5.70
2022-08-30T08:15:34.285Z,6.30
2022-08-30T08:18:01.462Z,7.00
2022-08-30T08:20:28.691Z,6.25
2022-08-30T08:22:55.748Z,5.70
2022-08-30T08:25:23.441Z,5.53
2022-08-30T08:27:52.093Z,5.75
2022-08-30T08:30:20.582Z,5.57
2022-08-30T08:32:48.573Z,5.82
2022-08-30T08:35:17.546Z,5.70
2022-08-30T08:37:44.668Z,5.93
2022-08-30T08:40:16.010Z,5.97
2022-08-30T08:43:10.448Z,6.00
2022-08-30T08:45:43.142Z,6.00
2022-08-30T08:48:58.515Z,6.07
2022-08-30T08:51:47.970Z,5.20
2022-08-30T08:54:47.771Z,5.57
2022-08-30T08:57:16.564Z,5.97
2022-08-30T08:59:45.453Z,6.00
2022-08-30T09:02:30.252Z,6.30
2022-08-30T09:05:01.055Z,6.25
2022-08-30T09:07:31.202Z,5.85
2022-08-30T09:10:00.816Z,6.35
2022-08-30T09:12:28.134Z,5.70
2022-08-30T09:14:59.489Z,6.18
2022-08-30T09:17:27.040Z,5.53
2022-08-30T09:19:54.399Z,6.00
2022-08-30T09:22:35.589Z,5.97
2022-08-30T09:25:09.276Z,5.40
2022-08-30T09:27:37.982Z,5.20
2022-08-30T09:33:02.371Z,5.97
2022-08-30T09:35:43.443Z,5.90
2022-08-30T09:38:19.449Z,5.22
2022-08-30T09:40:47.555Z,6.03
2022-08-30T09:43:17.472Z,5.55
2022-08-30T09:45:49.668Z,6.15
2022-08-30T09:48:44.208Z,4.97
2022-08-30T09:51:11.630Z,5.68
2022-08-30T09:54:14.444Z,5.32
2022-08-30T09:57:13.319Z,5.97
2022-08-30T09:59:49.922Z,5.62
2022-08-30T10:02:51.096Z,5.80
2022-08-30T10:05:33.388Z,5.55
2022-08-30T10:08:05.971Z,5.87
2022-08-30T10:10:53.898Z,5.87
2022-08-30T10:13:39.259Z,5.93
2022-08-30T10:16:31.051Z,6.07
2022-08-30T10:19:16.728Z,6.03
2022-08-30T10:21:59.723Z,5.90
2022-08-30T10:27:26.851Z,5.87
2022-08-30T10:30:06.501Z,6.18
2022-08-30T10:32:52.702Z,5.82
2022-08-30T10:35:25.476Z,5.97
2022-08-30T10:38:00.717Z,7.53
2022-08-30T10:40:54.366Z,6.03
2022-08-30T10:43:25.997Z,5.45
2022-08-30T10:45:55.780Z,5.53
2022-08-30T10:48:28.845Z,5.32
2022-08-30T10:50:59.418Z,5.75
2022-08-30T10:53:33.654Z,5.40
2022-08-30T10:56:07.739Z,5.68
2022-08-30T10:58:40.444Z,5.32
2022-08-30T11:01:17.655Z,5.53
2022-08-30T11:03:54.539Z,5.95
2022-08-30T11:06:40.254Z,5.18
2022-08-30T11:09:22.409Z,4.75
2022-08-30T11:12:29.203Z,5.35
2022-08-30T11:14:56.568Z,5.60
2022-08-30T11:17:26.688Z,5.68
2022-08-30T11:19:56.233Z,5.70
2022-08-30T11:22:28.428Z,5.72
2022-08-30T11:25:00.035Z,5.78
2022-08-30T11:27:42.947Z,6.10
2022-08-30T11:30:26.613Z,5.80
2022-08-30T11:33:09.778Z,6.00
2022-08-30T11:35:45.999Z,6.32
2022-08-30T11:38:27.544Z,5.30
2022-08-30T11:40:59.079Z,5.50
2022-08-30T11:43:36.737Z,5.80
2022-08-30T11:46:29.093Z,5.15
2022-08-30T11:49:13.314Z,4.93
2022-08-30T11:52:26.457Z,4.97
2022-08-30T11:55:18.547Z,5.00
2022-08-30T11:57:53.801Z,4.43
2022-08-30T12:00:52.841Z,5.28
2022-08-30T12:03:20.773Z,4.95
2022-08-30T12:05:59.842Z,4.78
2022-08-30T12:08:36.221Z,4.22
2022-08-30T12:11:09.254Z,5.07
2022-08-30T12:13:40.279Z,4.47
2022-08-30T12:16:11.817Z,4.53
2022-08-30T12:18:47.253Z,5.20
2022-08-30T12:21:21.351Z,4.90
2022-08-30T12:23:58.041Z,5.18
2022-08-30T12:26:33.271Z,4.30
2022-08-30T12:29:19.075Z,4.22
2022-08-30T12:32:00.537Z,4.37
2022-08-30T12:34:51.935Z,4.25
2022-08-30T12:37:42.209Z,4.50
2022-08-30T12:40:14.851Z,4.25
2022-08-30T12:42:51.479Z,4.30
2022-08-30T12:47:54.934Z,3.78
2022-08-30T12:50:29.252Z,4.40
2022-08-30T12:53:11.695Z,4.18
2022-08-30T12:56:05.940Z,3.70
2022-08-30T12:58:39.257Z,3.83
2022-08-30T13:01:25.444Z,4.15
2022-08-30T13:03:59.887Z,4.37
2022-08-30T13:06:44.951Z,3.80
2022-08-30T13:09:40.852Z,3.87
2022-08-30T13:12:21.066Z,3.78
2022-08-30T13:14:50.024Z,3.95
2022-08-30T13:17:19.329Z,3.67
2022-08-30T13:20:06.675Z,3.62
2022-08-30T13:22:39.354Z,3.65
2022-08-30T13:25:08.590Z,3.85
2022-08-30T13:27:37.488Z,3.22
2022-08-30T13:30:16.220Z,3.95
2022-08-30T13:32:43.664Z,3.75
2022-08-30T13:35:11.191Z,3.80
2022-08-30T13:37:50.762Z,4.03
2022-08-30T13:40:20.835Z,3.55
2022-08-30T13:42:48.463Z,3.62
2022-08-30T13:48:03.919Z,3.65
2022-08-30T13:50:31.254Z,3.75
2022-08-30T13:52:58.424Z,4.00
2022-08-30T13:55:25.426Z,3.42
2022-08-30T13:57:54.474Z,3.42
2022-08-30T14:00:22.519Z,3.45
2022-08-30T14:02:57.239Z,3.58
2022-08-30T14:11:13.502Z,3.92
2022-08-30T14:16:31.598Z,3.60
2022-08-30T14:19:00.410Z,3.95
2022-08-30T14:21:27.763Z,4.05
2022-08-30T14:23:56.671Z,4.15
2022-08-30T14:26:32.900Z,4.15
2022-08-30T14:29:04.852Z,3.75
2022-08-30T14:31:32.960Z,3.70
2022-08-30T14:34:01.573Z,3.60
2022-08-30T14:36:31.111Z,3.70
2022-08-30T14:38:58.625Z,3.47
2022-08-30T14:41:25.982Z,3.70
2022-08-30T14:43:52.989Z,3.62
2022-08-30T14:46:20.083Z,3.80
2022-08-30T14:48:47.441Z,3.55
2022-08-30T14:51:21.690Z,3.70
2022-08-30T14:53:51.845Z,3.33
2022-08-30T14:56:20.235Z,3.97
2022-08-30T14:58:51.585Z,3.55
2022-08-30T15:01:19.743Z,3.30
2022-08-30T15:03:46.925Z,3.42
2022-08-30T15:06:14.318Z,3.35
2022-08-30T15:08:41.585Z,3.10
2022-08-30T15:11:12.316Z,3.08
2022-08-30T15:13:39.859Z,3.30
2022-08-30T15:16:11.918Z,3.50
2022-08-30T15:18:38.957Z,3.35
2022-08-30T15:21:09.100Z,3.12
2022-08-30T15:23:39.293Z,3.05
2022-08-30T15:26:09.804Z,3.55
2022-08-30T15:28:37.181Z,3.20
2022-08-30T15:31:08.711Z,2.92
2022-08-30T15:33:37.579Z,3.45
2022-08-30T15:36:05.209Z,3.25
2022-08-30T15:38:32.858Z,3.00
2022-08-30T15:41:04.387Z,3.20
2022-08-30T15:43:31.747Z,3.50
2022-08-30T15:46:23.003Z,3.20
2022-08-30T15:48:52.496Z,3.37
2022-08-30T15:51:19.569Z,3.25
2022-08-30T15:53:46.664Z,3.37
2022-08-30T15:56:14.073Z,3.00
2022-08-30T15:58:41.647Z,3.42
2022-08-30T16:01:09.209Z,3.00
2022-08-30T16:03:37.950Z,3.10
2022-08-30T16:06:05.162Z,3.25
2022-08-30T16:08:32.086Z,2.78
2022-08-30T16:10:59.032Z,3.33
2022-08-30T16:13:26.008Z,3.25
2022-08-30T16:15:53.018Z,3.20
2022-08-30T16:18:19.980Z,3.00
2022-08-30T16:20:47.463Z,3.17
2022-08-30T16:23:14.445Z,3.20
2022-08-30T16:25:41.539Z,3.08
2022-08-30T16:28:09.371Z,3.78
2022-08-30T16:30:36.918Z,3.17
2022-08-30T16:33:04.150Z,2.83
2022-08-30T16:35:32.987Z,3.08
2022-08-30T16:37:59.945Z,3.40
2022-08-30T16:40:27.466Z,3.40
2022-08-30T16:42:54.448Z,3.40
2022-08-30T16:45:21.388Z,3.35
2022-08-30T16:47:52.086Z,3.50
2022-08-30T16:50:21.628Z,3.70
2022-08-30T16:52:48.593Z,3.33
2022-08-30T16:55:15.779Z,3.28
2022-08-30T16:57:42.812Z,3.20
2022-08-30T17:00:13.328Z,3.30
2022-08-30T17:02:45.298Z,3.53
2022-08-30T17:05:21.759Z,3.08
2022-08-30T17:07:48.677Z,2.92
2022-08-30T17:10:16.615Z,3.40
2022-08-30T17:12:50.212Z,3.10
2022-08-30T17:15:20.046Z,3.28
2022-08-30T17:17:48.469Z,3.10
2022-08-30T17:20:16.074Z,3.25
2022-08-30T17:22:43.085Z,3.30
2022-08-30T17:25:14.533Z,3.12
2022-08-30T17:27:42.307Z,2.80
2022-08-30T17:30:09.851Z,3.05
2022-08-30T17:32:37.087Z,2.92
2022-08-30T17:35:06.096Z,3.28
2022-08-30T17:37:33.503Z,3.62
2022-08-30T17:40:02.185Z,3.05
2022-08-30T17:42:31.577Z,3.47
2022-08-30T17:45:01.316Z,3.40
2022-08-30T17:55:14.899Z,3.50
2022-08-30T17:57:42.636Z,3.78
2022-08-30T18:00:12.082Z,3.50
2022-08-30T18:02:42.988Z,3.60
2022-08-30T18:05:10.178Z,3.70
2022-08-30T18:07:37.213Z,3.62
2022-08-30T18:10:05.606Z,3.92
2022-08-30T18:12:33.827Z,3.42
2022-08-30T18:15:12.290Z,3.47
2022-08-30T18:17:43.147Z,3.90
2022-08-30T18:20:10.527Z,4.10
2022-08-30T18:22:38.278Z,4.05
2022-08-30T18:25:07.997Z,3.55
2022-08-30T18:27:35.011Z,3.60
2022-08-30T18:30:11.635Z,3.67
2022-08-30T18:32:38.827Z,3.67
2022-08-30T18:35:06.620Z,3.72
2022-08-30T18:37:36.323Z,3.80
2022-08-30T18:40:04.645Z,3.92
2022-08-30T18:42:32.012Z,3.65
2022-08-30T18:44:59.039Z,3.95
2022-08-30T18:47:36.254Z,3.75
2022-08-30T18:50:05.232Z,3.67
2022-08-30T18:52:32.959Z,3.62
2022-08-30T18:55:02.834Z,3.75
2022-08-30T18:57:32.951Z,4.00
2022-08-30T18:59:59.904Z,3.95
2022-08-30T19:02:27.663Z,3.47
2022-08-30T19:04:55.081Z,4.20
2022-08-30T19:07:27.217Z,3.47
2022-08-30T19:09:58.969Z,4.07
2022-08-30T19:12:26.337Z,4.18
2022-08-30T19:14:54.629Z,4.05
2022-08-30T19:17:23.309Z,3.97
2022-08-30T19:19:52.330Z,3.70
2022-08-30T19:22:21.097Z,4.00
2022-08-30T19:24:49.953Z,3.78
2022-08-30T19:27:21.619Z,3.92
2022-08-30T19:30:10.411Z,4.22
2022-08-30T19:32:38.225Z,4.12
2022-08-30T19:35:06.294Z,4.25
2022-08-30T19:37:34.303Z,4.07
2022-08-30T19:40:02.062Z,3.85
2022-08-30T19:42:29.061Z,3.90
2022-08-30T19:44:56.110Z,3.83
2022-08-30T19:47:23.006Z,4.07
2022-08-30T19:49:50.232Z,3.90
2022-08-30T19:52:18.869Z,4.37
2022-08-30T19:54:45.978Z,4.40
2022-08-30T19:57:13.080Z,3.85
2022-08-30T19:59:41.197Z,4.05
2022-08-30T20:02:08.587Z,4.10
2022-08-30T20:04:35.602Z,4.03
2022-08-30T20:07:02.571Z,4.10
2022-08-30T20:09:29.603Z,4.20
2022-08-30T20:11:57.449Z,4.05
2022-08-30T20:14:26.161Z,4.20
2022-08-30T20:16:53.560Z,4.30
2022-08-30T20:19:27.365Z,4.55
2022-08-30T20:21:59.327Z,4.37
2022-08-30T20:24:26.280Z,3.20
2022-08-30T20:27:03.849Z,3.92
2022-08-30T20:29:30.826Z,4.05
2022-08-30T20:31:57.770Z,4.00
2022-08-30T20:34:27.716Z,4.72
2022-08-30T20:36:55.724Z,4.10
2022-08-30T20:39:23.222Z,4.75
2022-08-30T20:41:50.238Z,4.62
2022-08-30T20:44:18.548Z,3.87
2022-08-30T20:46:47.347Z,4.97
2022-08-30T20:49:14.462Z,4.07
2022-08-30T20:51:41.559Z,4.50
2022-08-30T20:54:09.193Z,4.00
2022-08-30T20:56:36.392Z,4.45
2022-08-30T20:59:04.240Z,4.47
2022-08-30T21:01:39.061Z,4.30
2022-08-30T21:04:08.402Z,4.28
2022-08-30T21:06:37.723Z,4.15
2022-08-30T21:09:06.234Z,4.15
2022-08-30T21:11:34.704Z,4.30
2022-08-30T21:14:01.917Z,3.70
2022-08-30T21:16:30.306Z,3.85
2022-08-30T21:18:57.372Z,4.68
2022-08-30T21:21:25.776Z,3.65
2022-08-30T21:23:53.930Z,3.70
2022-08-30T21:26:21.045Z,3.42
2022-08-30T21:28:52.138Z,3.50
2022-08-30T21:31:22.043Z,3.80
2022-08-30T21:33:50.516Z,3.87
2022-08-30T21:36:36.765Z,3.50
2022-08-30T21:39:04.667Z,3.33
2022-08-30T21:41:31.667Z,3.75
2022-08-30T21:44:03.921Z,3.47
2022-08-30T21:46:32.487Z,3.80
2022-08-30T21:49:01.701Z,3.65
2022-08-30T21:51:32.008Z,3.20
2022-08-30T21:53:59.058Z,3.67
2022-08-30T21:56:26.009Z,3.50
2022-08-30T21:58:53.347Z,3.45
2022-08-30T22:01:25.356Z,3.53
2022-08-30T22:03:55.506Z,3.72
2022-08-30T22:06:25.985Z,3.35
2022-08-30T22:08:59.893Z,3.65
2022-08-30T22:11:28.176Z,3.67
2022-08-30T22:13:55.634Z,3.70
2022-08-30T22:16:23.067Z,3.55
2022-08-30T22:18:50.845Z,3.58
2022-08-30T22:21:22.003Z,3.72
2022-08-30T22:23:48.983Z,4.18
2022-08-30T22:26:17.567Z,3.62
2022-08-30T22:28:44.601Z,3.97
2022-08-30T22:31:13.275Z,3.65
2022-08-30T22:33:40.395Z,3.67
2022-08-30T22:36:09.670Z,3.70
2022-08-30T22:38:36.727Z,3.92
2022-08-30T22:41:03.857Z,3.67
2022-08-30T22:43:31.142Z,3.58
2022-08-30T22:45:58.647Z,4.78
2022-08-30T22:48:25.617Z,4.20
2022-08-30T22:50:52.612Z,3.87
2022-08-30T22:53:20.134Z,3.90
2022-08-30T22:55:47.094Z,3.78
2022-08-30T22:58:13.999Z,3.62
2022-08-30T23:00:42.888Z,3.65
2022-08-30T23:03:21.848Z,3.70
2022-08-30T23:05:48.823Z,3.33
2022-08-30T23:08:15.732Z,3.25
2022-08-30T23:10:44.469Z,3.58
2022-08-30T23:13:11.576Z,3.15
2022-08-30T23:15:38.615Z,3.33
2022-08-30T23:18:05.648Z,3.30
2022-08-30T23:20:32.621Z,3.17
2022-08-30T23:22:59.634Z,3.40
2022-08-30T23:25:47.625Z,3.25
2022-08-30T23:28:38.211Z,3.00
2022-08-30T23:31:31.977Z,3.00
2022-08-30T23:34:17.642Z,3.00
2022-08-30T23:37:03.888Z,3.15
2022-08-30T23:39:49.411Z,2.92
2022-08-30T23:42:35.118Z,3.10
2022-08-30T23:45:20.700Z,2.83
2022-08-30T23:48:06.250Z,3.08
2022-08-30T23:50:52.002Z,3.00
2022-08-30T23:53:37.534Z,2.97
2022-08-30T23:56:23.154Z,3.45
2022-08-30T23:59:08.651Z,3.17
